Time;durP1;ratioP1;P1;durP2;ratioP2;P2;SDS_P1;SDS_P2;PMS_P1;PMS_P2;Temp;Humidity;BMP_temperature;BMP_pressure;BME280_temperature;BME280_humidity;BME280_pressure;Samples;Min_cycle;Max_cycle;Signal;HPM_P1;HPM_P2
2023/10/09 00:03:06;;;;;;;55.88;25.65;;;;;;;;;;4986061;28;99969;-63
2023/10/09 00:05:45;;;;;;;53.47;25.48;;;;;;;;;;4989383;28;99464;-63
2023/10/09 00:08:19;;;;;;;50.17;24.83;;;;;;;;;;4986044;28;98731;-63
2023/10/09 00:10:52;;;;;;;53.90;25.27;;;;;;;;;;4989084;28;100348;-63
2023/10/09 00:13:30;;;;;;;56.35;25.55;;;;;;;;;;4988390;28;99651;-64
2023/10/09 00:16:01;;;;;;;47.10;23.73;;;;;;;;;;4989717;28;98660;-63
2023/10/09 00:18:33;;;;;;;48.17;24.50;;;;;;;;;;4991843;28;100244;-63
2023/10/09 00:21:11;;;;;;;43.95;23.65;;;;;;;;;;4988857;28;98785;-63
2023/10/09 00:23:39;;;;;;;47.78;24.10;;;;;;;;;;4989522;28;99344;-63
2023/10/09 00:26:09;;;;;;;42.17;23.27;;;;;;;;;;4988384;28;101186;-63
2023/10/09 00:28:36;;;;;;;49.65;23.83;;;;;;;;;;4987949;28;98746;-63
2023/10/09 00:31:07;;;;;;;46.67;23.23;;;;;;;;;;4989303;28;99290;-63
2023/10/09 00:33:34;;;;;;;45.03;22.70;;;;;;;;;;4989015;28;100451;-63
2023/10/09 00:36:10;;;;;;;42.35;22.83;;;;;;;;;;4988902;28;98595;-63
2023/10/09 00:38:39;;;;;;;54.08;23.15;;;;;;;;;;4988898;28;99750;-63
2023/10/09 00:43:38;;;;;;;50.10;24.27;;;;;;;;;;4988983;28;100461;-63
2023/10/09 00:48:47;;;;;;;47.67;23.52;;;;;;;;;;4985451;28;98697;-64
2023/10/09 00:51:19;;;;;;;41.88;22.45;;;;;;;;;;4988471;28;99325;-63
2023/10/09 00:53:57;;;;;;;45.45;23.13;;;;;;;;;;4988318;28;99499;-63
2023/10/09 00:59:00;;;;;;;51.65;23.25;;;;;;;;;;4989458;28;100620;-63
2023/10/09 01:04:17;;;;;;;39.60;22.35;;;;;;;;;;4988686;28;99002;-63
2023/10/09 01:06:45;;;;;;;45.33;23.92;;;;;;;;;;4985530;28;100543;-64
2023/10/09 01:09:13;;;;;;;55.92;24.05;;;;;;;;;;4989604;28;97914;-63
2023/10/09 01:14:26;;;;;;;40.92;22.70;;;;;;;;;;4986596;28;99687;-63
2023/10/09 01:16:54;;;;;;;42.10;22.60;;;;;;;;;;4988230;28;99625;-63
2023/10/09 01:19:24;;;;;;;52.25;22.75;;;;;;;;;;4988461;28;99950;-63
2023/10/09 01:21:51;;;;;;;45.60;23.00;;;;;;;;;;4988395;28;99504;-63
2023/10/09 01:24:19;;;;;;;49.30;24.05;;;;;;;;;;4988314;28;98564;-63
2023/10/09 01:26:47;;;;;;;43.92;22.00;;;;;;;;;;4991291;28;99082;-63
2023/10/09 01:29:14;;;;;;;40.70;22.30;;;;;;;;;;4988465;28;98493;-63
2023/10/09 01:31:46;;;;;;;41.35;21.35;;;;;;;;;;4984906;28;99598;-63
2023/10/09 01:34:13;;;;;;;39.47;20.88;;;;;;;;;;4984645;28;98839;-63
2023/10/09 01:36:39;;;;;;;38.97;21.15;;;;;;;;;;4988073;28;98619;-64
2023/10/09 01:39:09;;;;;;;36.65;20.77;;;;;;;;;;4988470;28;99651;-63
2023/10/09 01:41:46;;;;;;;40.45;21.20;;;;;;;;;;4987463;28;100241;-63
2023/10/09 01:44:12;;;;;;;44.92;21.88;;;;;;;;;;4983721;28;98868;-63
2023/10/09 01:46:39;;;;;;;43.22;20.88;;;;;;;;;;4988082;28;99232;-63
2023/10/09 01:49:09;;;;;;;35.58;20.20;;;;;;;;;;4990265;28;101112;-63
2023/10/09 01:51:36;;;;;;;39.08;20.20;;;;;;;;;;4989194;28;99020;-65
2023/10/09 01:54:03;;;;;;;41.67;20.65;;;;;;;;;;4987661;28;99458;-66
2023/10/09 01:56:29;;;;;;;36.55;19.77;;;;;;;;;;4987407;28;98537;-65
2023/10/09 01:59:02;;;;;;;39.55;20.63;;;;;;;;;;4988589;28;100391;-66
2023/10/09 02:01:28;;;;;;;31.92;19.10;;;;;;;;;;4987199;28;99685;-66
2023/10/09 02:04:03;;;;;;;46.40;20.40;;;;;;;;;;4987615;28;98674;-65
2023/10/09 02:06:32;;;;;;;38.13;19.33;;;;;;;;;;4987714;28;99207;-66
2023/10/09 02:08:59;;;;;;;38.88;19.50;;;;;;;;;;4987860;28;100577;-65
2023/10/09 02:11:41;;;;;;;37.63;19.77;;;;;;;;;;4990870;28;98594;-65
2023/10/09 02:14:19;;;;;;;37.97;19.25;;;;;;;;;;4987523;28;99534;-65
2023/10/09 02:17:02;;;;;;;33.65;18.40;;;;;;;;;;4984331;28;98547;-66
2023/10/09 02:19:34;;;;;;;30.20;18.17;;;;;;;;;;4986001;28;99230;-66
2023/10/09 02:22:12;;;;;;;30.27;17.67;;;;;;;;;;4987457;28;99425;-66
2023/10/09 02:30:08;;;;;;;34.55;17.85;;;;;;;;;;4981408;28;99460;-65
2023/10/09 02:32:35;;;;;;;32.00;17.42;;;;;;;;;;4990527;28;99615;-66
2023/10/09 02:35:11;;;;;;;35.05;17.33;;;;;;;;;;4987062;28;99862;-65
2023/10/09 02:37:38;;;;;;;29.40;17.73;;;;;;;;;;4987854;28;98956;-65
2023/10/09 02:40:08;;;;;;;33.20;17.05;;;;;;;;;;4987553;28;99384;-66
2023/10/09 02:42:34;;;;;;;;;;;;;;;;;;4986891;28;99809;-65
2023/10/09 02:45:03;;;;;;;31.58;17.20;;;;;;;;;;4988629;28;120615;-65
2023/10/09 02:47:37;;;;;;;33.50;17.55;;;;;;;;;;4987459;28;99227;-65
2023/10/09 02:50:19;;;;;;;35.88;18.05;;;;;;;;;;4987648;28;98860;-65
2023/10/09 02:52:47;;;;;;;32.83;17.05;;;;;;;;;;4984233;28;98482;-65
2023/10/09 02:55:23;;;;;;;28.38;16.25;;;;;;;;;;4990637;28;101140;-66
2023/10/09 02:57:55;;;;;;;31.90;17.77;;;;;;;;;;4987580;28;99259;-66
2023/10/09 03:00:29;;;;;;;32.00;16.33;;;;;;;;;;4990504;28;99856;-65
2023/10/09 03:02:58;;;;;;;29.58;17.13;;;;;;;;;;4990396;28;100610;-63
2023/10/09 03:05:27;;;;;;;31.30;16.13;;;;;;;;;;4990695;28;98625;-63
2023/10/09 03:07:54;;;;;;;34.08;16.90;;;;;;;;;;4989654;28;99203;-63
2023/10/09 03:10:23;;;;;;;27.85;16.13;;;;;;;;;;4990018;28;99482;-63
2023/10/09 03:12:56;;;;;;;34.28;16.33;;;;;;;;;;4990819;28;98635;-63
2023/10/09 03:15:22;;;;;;;27.30;15.25;;;;;;;;;;4990201;28;99204;-63
2023/10/09 03:17:48;;;;;;;31.42;16.15;;;;;;;;;;4993313;28;99472;-63
2023/10/09 03:20:17;;;;;;;34.35;16.08;;;;;;;;;;4990947;28;99980;-63
2023/10/09 03:22:48;;;;;;;27.90;15.30;;;;;;;;;;4989483;28;101336;-63
2023/10/09 03:25:16;;;;;;;28.25;14.43;;;;;;;;;;4987059;28;98984;-63
2023/10/09 03:27:46;;;;;;;27.08;15.32;;;;;;;;;;4990539;28;99495;-64
2023/10/09 03:30:16;;;;;;;27.23;15.48;;;;;;;;;;4989385;28;99462;-63
2023/10/09 03:32:50;;;;;;;29.85;15.32;;;;;;;;;;4990098;28;98638;-63
2023/10/09 03:35:33;;;;;;;29.35;14.43;;;;;;;;;;4987059;28;99197;-63
2023/10/09 03:38:02;;;;;;;24.48;13.95;;;;;;;;;;4987203;28;99486;-63
2023/10/09 03:40:28;;;;;;;26.77;14.25;;;;;;;;;;4993394;28;97941;-63
2023/10/09 03:42:55;;;;;;;30.92;15.00;;;;;;;;;;4989340;28;100498;-63
2023/10/09 03:45:35;;;;;;;25.48;14.35;;;;;;;;;;4986170;28;98489;-63
2023/10/09 03:48:15;;;;;;;25.35;14.32;;;;;;;;;;4990162;28;99570;-63
2023/10/09 03:50:43;;;;;;;29.92;13.95;;;;;;;;;;4989810;28;100046;-64
2023/10/09 03:53:12;;;;;;;34.92;15.02;;;;;;;;;;4989693;28;98676;-63
2023/10/09 03:55:39;;;;;;;27.70;13.27;;;;;;;;;;4989516;28;99234;-63
2023/10/09 03:58:06;;;;;;;35.80;14.32;;;;;;;;;;4989553;28;99501;-63
2023/10/09 04:00:40;;;;;;;30.75;14.63;;;;;;;;;;4989684;28;98711;-64
2023/10/09 04:03:07;;;;;;;28.85;13.90;;;;;;;;;;4993151;28;98702;-63
2023/10/09 04:05:34;;;;;;;32.85;14.70;;;;;;;;;;4990018;28;98063;-63
2023/10/09 04:08:12;;;;;;;26.75;14.88;;;;;;;;;;4989006;28;99514;-63
2023/10/09 04:10:51;;;;;;;28.33;14.40;;;;;;;;;;4989193;28;99319;-63
2023/10/09 04:13:23;;;;;;;29.08;14.75;;;;;;;;;;4985934;28;99316;-63
2023/10/09 04:15:52;;;;;;;33.95;15.13;;;;;;;;;;4985566;28;100093;-63
2023/10/09 04:18:18;;;;;;;33.05;14.95;;;;;;;;;;4992338;28;100507;-63
2023/10/09 04:21:16;;;;;;;27.17;14.32;;;;;;;;;;4989375;28;98723;-63
2023/10/09 04:23:59;;;;;;;35.97;15.20;;;;;;;;;;4987594;28;99170;-64
2023/10/09 04:26:25;;;;;;;31.75;14.30;;;;;;;;;;4989247;28;99483;-63
2023/10/09 04:28:54;;;;;;;25.50;14.52;;;;;;;;;;4988887;28;99584;-63
2023/10/09 04:31:31;;;;;;;27.77;14.60;;;;;;;;;;4989538;28;100135;-64
2023/10/09 04:37:00;;;;;;;23.90;13.60;;;;;;;;;;4952400;28;100436;-64
2023/10/09 04:47:36;;;;;;;29.65;14.15;;;;;;;;;;4989268;28;100450;-63
2023/10/09 05:02:54;;;;;;;29.25;13.10;;;;;;;;;;4985675;28;98541;-64
2023/10/09 05:08:21;;;;;;;29.30;12.70;;;;;;;;;;4986849;28;99767;-63
2023/10/09 05:16:05;;;;;;;29.38;12.52;;;;;;;;;;4989127;28;98522;-63
2023/10/09 05:18:36;;;;;;;29.77;13.00;;;;;;;;;;4987622;28;99706;-63
2023/10/09 05:23:48;;;;;;;30.13;13.07;;;;;;;;;;4988235;28;97812;-63
2023/10/09 05:26:38;;;;;;;27.33;12.30;;;;;;;;;;4989169;28;99620;-63
2023/10/09 05:29:49;;;;;;;30.55;11.75;;;;;;;;;;4989315;28;100128;-63
2023/10/09 05:32:02;;;;;;;27.05;12.80;;;;;;;;;;4983382;28;99256;-63
2023/10/09 05:34:36;;;;;;;25.58;12.00;;;;;;;;;;4990780;28;99933;-63
2023/10/09 05:42:59;;;;;;;20.38;11.23;;;;;;;;;;4984463;28;99595;-63
2023/10/09 05:50:35;;;;;;;21.17;9.23;;;;;;;;;;4985668;28;99102;-63
2023/10/09 06:01:05;;;;;;;28.02;11.13;;;;;;;;;;4990040;28;100216;-63
2023/10/09 06:04:49;;;;;;;19.60;9.80;;;;;;;;;;4984757;28;100864;-63
2023/10/09 06:06:56;;;;;;;25.05;9.98;;;;;;;;;;4987753;28;98827;-63
2023/10/09 06:09:49;;;;;;;20.08;8.98;;;;;;;;;;4984300;28;99205;-63
2023/10/09 06:15:32;;;;;;;17.60;9.15;;;;;;;;;;4977965;28;99694;-63
2023/10/09 06:18:25;;;;;;;20.70;9.68;;;;;;;;;;4985773;28;99498;-62
2023/10/09 06:26:24;;;;;;;18.52;10.02;;;;;;;;;;4987650;28;100245;-62
2023/10/09 06:29:14;;;;;;;24.13;9.77;;;;;;;;;;4987662;28;98642;-63
2023/10/09 06:34:32;;;;;;;21.48;9.32;;;;;;;;;;4991985;28;100367;-63
2023/10/09 06:37:05;;;;;;;24.17;9.38;;;;;;;;;;4988781;28;98538;-63
2023/10/09 06:45:08;;;;;;;23.08;9.45;;;;;;;;;;4988972;28;98156;-63
2023/10/09 06:47:41;;;;;;;17.42;8.55;;;;;;;;;;4994354;28;98451;-63
2023/10/09 06:53:19;;;;;;;25.58;9.45;;;;;;;;;;4991235;28;99758;-63
2023/10/09 06:55:52;;;;;;;20.17;9.02;;;;;;;;;;4986580;28;99465;-63
2023/10/09 06:58:26;;;;;;;20.90;9.02;;;;;;;;;;4992278;28;98666;-63
2023/10/09 07:03:51;;;;;;;23.52;9.02;;;;;;;;;;4987628;28;100447;-63
2023/10/09 07:06:47;;;;;;;17.73;8.77;;;;;;;;;;4990669;28;98675;-64
2023/10/09 07:16:58;;;;;;;21.20;9.50;;;;;;;;;;4987153;28;100438;-63
2023/10/09 07:19:35;;;;;;;21.60;8.80;;;;;;;;;;4986729;28;99224;-63
2023/10/09 07:22:15;;;;;;;16.30;9.40;;;;;;;;;;4987948;28;101405;-63
2023/10/09 07:24:49;;;;;;;29.13;9.52;;;;;;;;;;4989736;28;99521;-63
2023/10/09 07:27:16;;;;;;;24.05;9.35;;;;;;;;;;4990744;28;98475;-63
2023/10/09 07:29:49;;;;;;;27.00;9.27;;;;;;;;;;4990408;28;99164;-63
2023/10/09 07:32:21;;;;;;;26.77;9.45;;;;;;;;;;4993711;28;99401;-63
2023/10/09 07:34:57;;;;;;;24.67;10.52;;;;;;;;;;4990111;28;99401;-63
2023/10/09 07:37:24;;;;;;;21.75;8.48;;;;;;;;;;4989389;28;98783;-63
2023/10/09 07:39:56;;;;;;;22.75;8.98;;;;;;;;;;4991109;28;98589;-63
2023/10/09 07:42:33;;;;;;;22.08;9.27;;;;;;;;;;4988915;28;99386;-63
2023/10/09 07:45:11;;;;;;;23.20;9.43;;;;;;;;;;4986712;28;100383;-65
2023/10/09 07:50:23;;;;;;;24.48;9.30;;;;;;;;;;4989623;28;100300;-65
2023/10/09 07:52:51;;;;;;;24.70;9.68;;;;;;;;;;4990519;28;100494;-65
2023/10/09 07:55:26;;;;;;;20.60;9.40;;;;;;;;;;4993836;28;98632;-66
2023/10/09 07:57:53;;;;;;;26.25;10.32;;;;;;;;;;4990586;28;100464;-65
2023/10/09 08:01:05;;;;;;;24.45;9.48;;;;;;;;;;4988980;28;98563;-65
2023/10/09 08:03:24;;;;;;;19.40;9.13;;;;;;;;;;4990572;28;100208;-65
2023/10/09 08:05:53;;;;;;;18.63;9.02;;;;;;;;;;4990452;28;99774;-66
2023/10/09 08:14:00;;;;;;;21.25;8.68;;;;;;;;;;4989870;28;99535;-65
2023/10/09 08:16:36;;;;;;;22.83;8.85;;;;;;;;;;4986708;28;98598;-65
2023/10/09 08:19:32;;;;;;;25.08;9.50;;;;;;;;;;4990137;28;99998;-65
2023/10/09 08:24:52;;;;;;;25.15;9.82;;;;;;;;;;4986758;28;100212;-65
2023/10/09 08:35:47;;;;;;;18.63;8.63;;;;;;;;;;4986878;28;100188;-66
2023/10/09 08:38:17;;;;;;;17.35;9.48;;;;;;;;;;4988931;28;99246;-65
2023/10/09 08:40:46;;;;;;;24.52;9.73;;;;;;;;;;4989417;28;99956;-66
2023/10/09 08:43:16;;;;;;;20.40;8.82;;;;;;;;;;4992625;28;99447;-66
2023/10/09 08:45:51;;;;;;;17.15;7.80;;;;;;;;;;4990146;28;99143;-65
2023/10/09 08:48:19;;;;;;;27.25;8.65;;;;;;;;;;4989740;28;100953;-66
2023/10/09 08:50:46;;;;;;;19.75;7.93;;;;;;;;;;4989126;28;98554;-66
2023/10/09 08:53:12;;;;;;;18.33;7.90;;;;;;;;;;4989677;28;99190;-65
2023/10/09 08:55:40;;;;;;;18.08;7.55;;;;;;;;;;4989755;28;98741;-63
2023/10/09 08:58:17;;;;;;;19.02;7.85;;;;;;;;;;4988717;28;98595;-63
2023/10/09 09:00:45;;;;;;;14.13;7.53;;;;;;;;;;4989808;28;100119;-63
2023/10/09 09:03:15;;;;;;;22.17;7.90;;;;;;;;;;4989092;28;101468;-63
2023/10/09 09:05:56;;;;;;;22.90;8.00;;;;;;;;;;4991613;28;98777;-63
2023/10/09 09:08:24;;;;;;;19.30;7.00;;;;;;;;;;4988994;28;99316;-63
2023/10/09 09:11:11;;;;;;;22.90;7.88;;;;;;;;;;4989170;28;98564;-63
2023/10/09 09:13:41;;;;;;;13.60;7.05;;;;;;;;;;4987077;28;100332;-63
2023/10/09 09:16:29;;;;;;;19.83;6.77;;;;;;;;;;4987804;28;99540;-63
2023/10/09 09:19:03;;;;;;;16.70;6.63;;;;;;;;;;4989302;28;98715;-64
2023/10/09 09:21:30;;;;;;;14.73;6.60;;;;;;;;;;4986242;28;100209;-63
2023/10/09 09:23:58;;;;;;;18.52;6.72;;;;;;;;;;4988449;28;99511;-63
2023/10/09 09:26:37;;;;;;;19.40;6.68;;;;;;;;;;4992216;28;98642;-63
2023/10/09 09:29:05;;;;;;;16.30;5.88;;;;;;;;;;4985137;28;100250;-63
2023/10/09 09:31:38;;;;;;;20.90;6.53;;;;;;;;;;4988858;28;98708;-63
2023/10/09 09:34:12;;;;;;;15.70;6.95;;;;;;;;;;4986126;28;99314;-63
2023/10/09 09:36:58;;;;;;;22.60;6.97;;;;;;;;;;4988535;28;101571;-63
2023/10/09 09:39:27;;;;;;;19.55;6.63;;;;;;;;;;4989237;28;98609;-63
2023/10/09 09:42:10;;;;;;;15.05;6.07;;;;;;;;;;4984911;28;99207;-63
2023/10/09 09:44:43;;;;;;;17.60;6.53;;;;;;;;;;4988416;28;99496;-63
2023/10/09 09:47:13;;;;;;;15.40;6.53;;;;;;;;;;4989620;28;97909;-63
2023/10/09 09:49:41;;;;;;;14.38;6.68;;;;;;;;;;4991699;28;98794;-63
2023/10/09 09:52:11;;;;;;;14.43;6.93;;;;;;;;;;4988371;28;98526;-63
2023/10/09 09:54:38;;;;;;;16.33;6.07;;;;;;;;;;4987897;28;99375;-63
2023/10/09 09:57:10;;;;;;;18.92;5.75;;;;;;;;;;4989055;28;99663;-66
2023/10/09 09:59:40;;;;;;;12.50;5.10;;;;;;;;;;4989273;28;98753;-62
2023/10/09 10:02:20;;;;;;;17.58;5.30;;;;;;;;;;4988551;28;98394;-62
2023/10/09 10:04:50;;;;;;;17.65;5.75;;;;;;;;;;4990496;28;99477;-63
2023/10/09 10:07:21;;;;;;;15.10;6.00;;;;;;;;;;4995866;28;99011;-62
2023/10/09 10:09:54;;;;;;;19.80;6.50;;;;;;;;;;4994704;28;99157;-63
2023/10/09 10:12:46;;;;;;;16.17;6.35;;;;;;;;;;4998910;28;99650;-63
2023/10/09 10:15:15;;;;;;;13.40;6.32;;;;;;;;;;4991429;28;98657;-62
2023/10/09 10:17:58;;;;;;;20.52;6.30;;;;;;;;;;4994771;28;99540;-63
2023/10/09 10:20:26;;;;;;;17.98;5.55;;;;;;;;;;4993763;28;99224;-63
2023/10/09 10:23:12;;;;;;;17.55;5.95;;;;;;;;;;4995387;28;100913;-63
2023/10/09 10:25:41;;;;;;;16.80;5.90;;;;;;;;;;4994323;28;99476;-62
2023/10/09 10:28:28;;;;;;;15.23;5.65;;;;;;;;;;4995059;28;98497;-63
2023/10/09 10:30:55;;;;;;;13.00;5.80;;;;;;;;;;4994721;28;99211;-62
2023/10/09 10:33:23;;;;;;;12.68;5.63;;;;;;;;;;4994424;28;99785;-64
2023/10/09 10:35:52;;;;;;;16.15;5.22;;;;;;;;;;4998121;28;98577;-62
2023/10/09 10:38:20;;;;;;;;;;;;;;;;;;4995831;28;99822;-62
2023/10/09 10:40:50;;;;;;;14.30;5.15;;;;;;;;;;4995872;28;118677;-62
2023/10/09 10:43:32;;;;;;;14.77;5.47;;;;;;;;;;4994410;28;100719;-62
2023/10/09 10:46:14;;;;;;;14.25;5.45;;;;;;;;;;4993559;28;100236;-62
2023/10/09 10:48:49;;;;;;;17.10;5.50;;;;;;;;;;4990454;28;98652;-63
2023/10/09 10:51:21;;;;;;;12.00;5.18;;;;;;;;;;4994072;28;100071;-62
2023/10/09 10:53:52;;;;;;;17.15;5.03;;;;;;;;;;4994660;28;100517;-62
2023/10/09 10:56:34;;;;;;;25.70;5.25;;;;;;;;;;4994278;28;98687;-62
2023/10/09 11:01:50;;;;;;;16.67;5.18;;;;;;;;;;4994259;28;99998;-62
2023/10/09 11:04:24;;;;;;;16.73;4.93;;;;;;;;;;4992557;28;100160;-62
2023/10/09 11:06:51;;;;;;;14.43;5.43;;;;;;;;;;4993422;28;99570;-62
2023/10/09 11:09:35;;;;;;;14.77;5.03;;;;;;;;;;4994913;28;98593;-63
2023/10/09 11:12:23;;;;;;;10.53;4.87;;;;;;;;;;4991305;28;99188;-63
2023/10/09 11:15:06;;;;;;;13.55;5.10;;;;;;;;;;4993518;28;99547;-62
2023/10/09 11:17:35;;;;;;;10.45;4.93;;;;;;;;;;4994805;28;98518;-63
2023/10/09 11:20:22;;;;;;;12.43;5.07;;;;;;;;;;4992354;28;99219;-62
2023/10/09 11:23:14;;;;;;;16.80;5.28;;;;;;;;;;4989400;28;98730;-62
2023/10/09 11:25:49;;;;;;;14.88;5.15;;;;;;;;;;4988032;28;99251;-61
2023/10/09 11:28:42;;;;;;;11.82;5.43;;;;;;;;;;4990592;28;100547;-62
2023/10/09 11:31:12;;;;;;;13.00;4.93;;;;;;;;;;4988392;28;97851;-63
2023/10/09 11:33:46;;;;;;;15.20;4.47;;;;;;;;;;4990982;28;99193;-63
2023/10/09 11:36:12;;;;;;;18.70;4.72;;;;;;;;;;4989825;28;99466;-62
2023/10/09 11:38:39;;;;;;;11.07;4.57;;;;;;;;;;4990696;28;99640;-62
2023/10/09 11:41:18;;;;;;;11.25;4.40;;;;;;;;;;4990729;28;100888;-62
2023/10/09 11:43:51;;;;;;;16.13;4.57;;;;;;;;;;4991013;28;99454;-62
2023/10/09 11:46:37;;;;;;;15.18;5.13;;;;;;;;;;4990084;28;99586;-62
2023/10/09 11:49:34;;;;;;;11.68;5.13;;;;;;;;;;4989888;28;100885;-62
2023/10/09 11:54:35;;;;;;;17.13;4.95;;;;;;;;;;4987342;28;99596;-63
2023/10/09 11:57:02;;;;;;;16.90;4.72;;;;;;;;;;4990769;28;99109;-62
2023/10/09 11:59:37;;;;;;;16.02;5.00;;;;;;;;;;4989987;28;98527;-62
2023/10/09 12:02:11;;;;;;;11.20;4.85;;;;;;;;;;4990245;28;99011;-62
2023/10/09 12:04:41;;;;;;;16.10;4.60;;;;;;;;;;4986021;28;101317;-62
2023/10/09 12:07:11;;;;;;;13.40;5.45;;;;;;;;;;4990449;28;98618;-62
2023/10/09 12:09:38;;;;;;;19.73;4.57;;;;;;;;;;4989954;28;99946;-62
2023/10/09 12:12:05;;;;;;;13.10;4.57;;;;;;;;;;4989587;28;98640;-62
2023/10/09 12:14:35;;;;;;;9.70;4.40;;;;;;;;;;4990752;28;99136;-62
2023/10/09 12:17:07;;;;;;;12.73;4.33;;;;;;;;;;4989886;28;99595;-62
2023/10/09 12:19:37;;;;;;;11.40;4.47;;;;;;;;;;4990137;28;98648;-62
2023/10/09 12:22:05;;;;;;;18.33;4.80;;;;;;;;;;4990605;28;100573;-64
2023/10/09 12:24:33;;;;;;;14.70;5.05;;;;;;;;;;4990206;28;100460;-62
2023/10/09 12:26:59;;;;;;;10.35;4.93;;;;;;;;;;4989929;28;98602;-65
2023/10/09 12:29:30;;;;;;;10.18;4.95;;;;;;;;;;4992346;28;99372;-65
2023/10/09 12:31:59;;;;;;;13.85;5.15;;;;;;;;;;4989788;28;98939;-65
2023/10/09 12:34:30;;;;;;;14.65;4.93;;;;;;;;;;4990353;28;100246;-65
2023/10/09 12:37:03;;;;;;;12.95;5.05;;;;;;;;;;4989482;28;99685;-65
2023/10/09 12:39:33;;;;;;;23.10;5.65;;;;;;;;;;4989440;28;98481;-65
2023/10/09 12:42:06;;;;;;;18.55;5.15;;;;;;;;;;4989255;28;100521;-65
2023/10/09 12:44:38;;;;;;;17.77;4.32;;;;;;;;;;4988713;28;99467;-65
2023/10/09 12:47:05;;;;;;;11.35;4.45;;;;;;;;;;4990069;28;98314;-67
2023/10/09 12:49:32;;;;;;;13.45;4.65;;;;;;;;;;4989892;28;98667;-65
2023/10/09 12:51:59;;;;;;;15.82;4.65;;;;;;;;;;4992132;28;99480;-65
2023/10/09 12:54:28;;;;;;;17.08;5.03;;;;;;;;;;4988733;28;103103;-65
2023/10/09 12:56:55;;;;;;;17.08;4.95;;;;;;;;;;4989413;28;99482;-65
2023/10/09 12:59:23;;;;;;;16.90;4.60;;;;;;;;;;4989039;28;98660;-65
2023/10/09 13:01:52;;;;;;;15.63;5.20;;;;;;;;;;4989782;28;100018;-65
2023/10/09 13:04:22;;;;;;;19.73;4.43;;;;;;;;;;4988952;28;99762;-66
2023/10/09 13:06:51;;;;;;;14.00;4.55;;;;;;;;;;4990297;28;99097;-66
2023/10/09 13:12:17;;;;;;;15.75;5.03;;;;;;;;;;4979873;28;98845;-66
2023/10/09 13:14:47;;;;;;;14.38;5.43;;;;;;;;;;4992309;28;98575;-66
2023/10/09 13:17:14;;;;;;;17.55;5.45;;;;;;;;;;4989244;28;99487;-66
2023/10/09 13:19:40;;;;;;;14.00;4.50;;;;;;;;;;4989121;28;99249;-66
2023/10/09 13:22:12;;;;;;;15.88;5.70;;;;;;;;;;4988552;28;100087;-66
2023/10/09 13:24:40;;;;;;;18.52;4.80;;;;;;;;;;4985079;28;99550;-66
2023/10/09 13:27:09;;;;;;;13.73;4.93;;;;;;;;;;4989195;28;98623;-66
2023/10/09 13:29:39;;;;;;;16.60;5.20;;;;;;;;;;4988983;28;99152;-65
2023/10/09 13:32:13;;;;;;;14.70;5.45;;;;;;;;;;4988731;28;99658;-65
2023/10/09 13:34:44;;;;;;;11.85;4.88;;;;;;;;;;4988995;28;98616;-65
2023/10/09 13:37:13;;;;;;;16.83;5.57;;;;;;;;;;4985404;28;98874;-66
2023/10/09 13:39:51;;;;;;;17.38;5.22;;;;;;;;;;4988546;28;98469;-65
2023/10/09 13:42:18;;;;;;;15.77;5.13;;;;;;;;;;4985197;28;99131;-65
2023/10/09 13:44:48;;;;;;;13.73;5.60;;;;;;;;;;4987589;28;100136;-66
2023/10/09 13:47:19;;;;;;;;;;;;;;;;;;4989643;28;98657;-63
2023/10/09 13:49:50;;;;;;;13.88;5.22;;;;;;;;;;4989848;28;129453;-65
2023/10/09 13:52:21;;;;;;;19.83;5.50;;;;;;;;;;4988101;28;100555;-66
2023/10/09 13:54:49;;;;;;;11.32;5.40;;;;;;;;;;4988535;28;98555;-66
2023/10/09 13:57:15;;;;;;;13.45;5.40;;;;;;;;;;4991571;28;100225;-66
2023/10/09 13:59:51;;;;;;;11.77;4.68;;;;;;;;;;4989264;28;98537;-66
2023/10/09 14:02:18;;;;;;;14.93;5.38;;;;;;;;;;4985836;28;99160;-66
2023/10/09 14:04:47;;;;;;;13.35;4.78;;;;;;;;;;4988901;28;101287;-66
2023/10/09 14:07:16;;;;;;;15.77;4.88;;;;;;;;;;4988258;28;98656;-66
2023/10/09 14:12:10;;;;;;;20.33;5.82;;;;;;;;;;4984779;28;100502;-66
2023/10/09 14:14:46;;;;;;;15.27;4.72;;;;;;;;;;4988819;28;98642;-66
2023/10/09 14:17:23;;;;;;;18.77;5.40;;;;;;;;;;4985744;28;99494;-66
2023/10/09 14:19:51;;;;;;;12.68;4.70;;;;;;;;;;4985032;28;99561;-66
2023/10/09 14:22:18;;;;;;;13.02;4.70;;;;;;;;;;4988057;28;100551;-65
2023/10/09 14:24:45;;;;;;;11.40;4.40;;;;;;;;;;4987579;28;99505;-65
2023/10/09 14:27:17;;;;;;;17.65;4.97;;;;;;;;;;4985721;28;97825;-65
2023/10/09 14:29:44;;;;;;;26.02;5.30;;;;;;;;;;4984639;28;98568;-65
2023/10/09 14:32:14;;;;;;;16.55;4.85;;;;;;;;;;4988338;28;99467;-65
2023/10/09 14:34:49;;;;;;;10.48;4.65;;;;;;;;;;4984276;28;99524;-65
2023/10/09 14:37:19;;;;;;;18.30;5.70;;;;;;;;;;4984868;28;99885;-65
2023/10/09 14:39:49;;;;;;;11.20;5.13;;;;;;;;;;4988084;28;99492;-65
2023/10/09 14:42:16;;;;;;;20.03;6.03;;;;;;;;;;4990836;28;98779;-65
2023/10/09 14:44:44;;;;;;;25.52;5.95;;;;;;;;;;4984117;28;99501;-66
2023/10/09 14:47:14;;;;;;;18.90;5.97;;;;;;;;;;4985045;28;98623;-63
2023/10/09 14:49:43;;;;;;;12.83;5.00;;;;;;;;;;4988566;28;99184;-63
2023/10/09 14:52:10;;;;;;;24.27;6.05;;;;;;;;;;4991113;28;98711;-63
2023/10/09 14:54:38;;;;;;;16.55;5.53;;;;;;;;;;4991973;28;98636;-63
2023/10/09 14:57:05;;;;;;;21.30;5.93;;;;;;;;;;4991262;28;99285;-63
2023/10/09 14:59:33;;;;;;;12.98;5.18;;;;;;;;;;4990689;28;100172;-63
2023/10/09 15:01:59;;;;;;;16.08;5.18;;;;;;;;;;4991309;28;98884;-63
2023/10/09 15:04:26;;;;;;;26.25;6.75;;;;;;;;;;4993719;28;100237;-63
2023/10/09 15:06:52;;;;;;;19.50;5.93;;;;;;;;;;4991705;28;98646;-63
2023/10/09 15:09:22;;;;;;;21.67;6.43;;;;;;;;;;4991471;28;99195;-64
2023/10/09 15:11:49;;;;;;;20.27;5.57;;;;;;;;;;4991088;28;100603;-63
2023/10/09 15:14:18;;;;;;;27.52;5.82;;;;;;;;;;4990927;28;98802;-63
2023/10/09 15:16:46;;;;;;;18.95;5.47;;;;;;;;;;4986977;28;99177;-63
2023/10/09 15:19:12;;;;;;;22.15;5.60;;;;;;;;;;4991377;28;100574;-63
2023/10/09 15:21:43;;;;;;;16.55;5.53;;;;;;;;;;4991183;28;98623;-64
2023/10/09 15:24:15;;;;;;;19.33;5.72;;;;;;;;;;4990531;28;100326;-63
2023/10/09 15:26:52;;;;;;;16.30;5.15;;;;;;;;;;4989971;28;99695;-63
2023/10/09 15:29:20;;;;;;;15.48;5.75;;;;;;;;;;4988330;28;100282;-64
2023/10/09 15:31:46;;;;;;;21.80;5.47;;;;;;;;;;4990389;28;99471;-63
2023/10/09 15:34:13;;;;;;;17.08;5.70;;;;;;;;;;4990919;28;98526;-64
2023/10/09 15:36:40;;;;;;;14.35;5.35;;;;;;;;;;4991413;28;99016;-63
2023/10/09 15:39:11;;;;;;;25.77;6.80;;;;;;;;;;4990540;28;100518;-63
2023/10/09 15:41:39;;;;;;;27.52;6.80;;;;;;;;;;4990299;28;98082;-63
2023/10/09 15:44:05;;;;;;;14.20;5.20;;;;;;;;;;4990609;28;98705;-63
2023/10/09 15:46:35;;;;;;;15.55;5.95;;;;;;;;;;4993292;28;99512;-63
2023/10/09 15:49:01;;;;;;;18.30;5.77;;;;;;;;;;4990177;28;99540;-64
2023/10/09 15:51:29;;;;;;;18.48;5.35;;;;;;;;;;4989382;28;99370;-63
2023/10/09 15:53:56;;;;;;;15.23;5.32;;;;;;;;;;4990197;28;98601;-64
2023/10/09 15:56:24;;;;;;;21.77;5.10;;;;;;;;;;4990006;28;99325;-63
2023/10/09 15:58:53;;;;;;;22.75;5.47;;;;;;;;;;4990235;28;99511;-64
2023/10/09 16:01:20;;;;;;;17.95;6.30;;;;;;;;;;4990405;28;98608;-64
2023/10/09 16:03:47;;;;;;;26.85;5.80;;;;;;;;;;4989738;28;99387;-63
2023/10/09 16:06:15;;;;;;;17.95;5.68;;;;;;;;;;4986959;28;99056;-63
2023/10/09 16:08:46;;;;;;;14.23;5.25;;;;;;;;;;4993423;28;99163;-63
2023/10/09 16:11:16;;;;;;;14.98;5.72;;;;;;;;;;4989684;28;99802;-63
2023/10/09 16:13:43;;;;;;;26.58;5.80;;;;;;;;;;4989537;28;99773;-64
2023/10/09 16:16:09;;;;;;;13.40;5.53;;;;;;;;;;4990873;28;102958;-63
2023/10/09 16:18:37;;;;;;;25.27;5.72;;;;;;;;;;4989733;28;98740;-63
2023/10/09 16:21:05;;;;;;;18.95;5.90;;;;;;;;;;4989310;28;98491;-63
2023/10/09 16:23:32;;;;;;;27.13;5.55;;;;;;;;;;4990710;28;99173;-64
2023/10/09 16:25:59;;;;;;;18.95;5.60;;;;;;;;;;4989555;28;99501;-63
2023/10/09 16:28:28;;;;;;;14.65;5.13;;;;;;;;;;4990117;28;98635;-63
2023/10/09 16:30:56;;;;;;;15.13;4.72;;;;;;;;;;4994052;28;99183;-63
2023/10/09 16:33:25;;;;;;;11.93;4.55;;;;;;;;;;4989421;28;98533;-64
2023/10/09 16:35:54;;;;;;;15.20;4.45;;;;;;;;;;4990241;28;100639;-64
2023/10/09 16:38:22;;;;;;;13.63;4.32;;;;;;;;;;4988929;28;100236;-64
2023/10/09 16:40:53;;;;;;;13.55;4.32;;;;;;;;;;4989863;28;98541;-63
2023/10/09 16:43:22;;;;;;;12.73;4.30;;;;;;;;;;4985858;28;99403;-64
2023/10/09 16:45:50;;;;;;;18.55;4.70;;;;;;;;;;4985711;28;99795;-63
2023/10/09 16:48:17;;;;;;;12.68;4.95;;;;;;;;;;4989788;28;98481;-64
2023/10/09 16:50:46;;;;;;;11.68;4.50;;;;;;;;;;4989771;28;100654;-63
2023/10/09 16:53:13;;;;;;;15.55;4.72;;;;;;;;;;4992840;28;100573;-63
2023/10/09 16:55:41;;;;;;;21.95;5.30;;;;;;;;;;4989571;28;99236;-62
2023/10/09 16:58:08;;;;;;;11.90;5.13;;;;;;;;;;4988809;28;99466;-63
2023/10/09 17:00:37;;;;;;;23.48;5.82;;;;;;;;;;4989001;28;98596;-63
2023/10/09 17:03:06;;;;;;;22.80;5.38;;;;;;;;;;4989348;28;99394;-63
2023/10/09 17:05:35;;;;;;;17.30;5.80;;;;;;;;;;4989426;28;100084;-63